Time;durP1;ratioP1;P1;durP2;ratioP2;P2;SDS_P1;SDS_P2;PMS_P1;PMS_P2;Temp;Humidity;BMP_temperature;BMP_pressure;BME280_temperature;BME280_humidity;BME280_pressure;Samples;Min_cycle;Max_cycle;Signal;HPM_P1;HPM_P2
2022/10/29 00:02:12;;;;;;;23.42;5.70;;;;;;;13.16;100.00;102078.03;5086977;28;20035;-69
2022/10/29 00:04:37;;;;;;;25.55;5.78;;;;;;;13.16;100.00;102065.69;5081893;28;20015;-69
2022/10/29 00:07:03;;;;;;;30.17;6.97;;;;;;;13.13;100.00;102068.28;5078920;28;20048;-70
2022/10/29 00:09:28;;;;;;;23.38;5.05;;;;;;;13.07;100.00;102073.38;5084774;28;20028;-70
2022/10/29 00:11:53;;;;;;;32.05;6.47;;;;;;;13.11;100.00;102071.72;5084673;28;20701;-71
2022/10/29 00:14:19;;;;;;;22.25;5.43;;;;;;;13.12;100.00;102074.41;5075874;28;20099;-69
2022/10/29 00:16:44;;;;;;;26.65;5.03;;;;;;;13.08;100.00;102067.25;5084731;28;20047;-70
2022/10/29 00:19:09;;;;;;;19.95;4.10;;;;;;;13.06;100.00;102063.69;5082682;28;20410;-68
2022/10/29 00:21:36;;;;;;;24.80;4.93;;;;;;;13.05;100.00;102067.19;5088948;28;20020;-69
2022/10/29 00:24:02;;;;;;;25.42;5.15;;;;;;;13.06;100.00;102068.97;5080997;28;20035;-69
2022/10/29 00:26:29;;;;;;;23.75;4.25;;;;;;;13.01;100.00;102065.31;5079540;28;20032;-69
2022/10/29 00:28:55;;;;;;;24.42;4.93;;;;;;;12.99;100.00;102078.50;5077238;28;20027;-68
2022/10/29 00:31:23;;;;;;;29.05;5.20;;;;;;;12.96;100.00;102070.47;5086991;28;20023;-69
2022/10/29 00:33:50;;;;;;;26.63;5.00;;;;;;;12.96;100.00;102069.56;5086433;28;20099;-70
2022/10/29 00:36:21;;;;;;;21.50;4.35;;;;;;;12.91;100.00;102061.50;5080130;28;20032;-69
2022/10/29 00:38:47;;;;;;;25.27;4.50;;;;;;;12.89;100.00;102063.22;5075721;28;20032;-70
2022/10/29 00:41:18;;;;;;;22.90;4.60;;;;;;;12.89;100.00;102062.34;5077047;28;20024;-68
2022/10/29 00:43:50;;;;;;;19.25;3.97;;;;;;;12.85;100.00;102056.09;5086572;28;20034;-68
2022/10/29 00:46:20;;;;;;;16.98;3.97;;;;;;;12.83;100.00;102055.13;5088877;28;20080;-69
2022/10/29 00:48:49;;;;;;;24.00;6.13;;;;;;;12.78;100.00;102046.22;5078836;28;20113;-69
2022/10/29 00:51:15;;;;;;;28.27;5.10;;;;;;;12.78;100.00;102047.09;5076017;28;20043;-69
2022/10/29 00:53:55;;;;;;;19.25;4.65;;;;;;;12.69;100.00;102044.19;5092367;28;20333;-69
2022/10/29 00:56:24;;;;;;;17.90;3.88;;;;;;;12.65;100.00;102056.41;5076994;28;20044;-69
2022/10/29 00:58:49;;;;;;;23.60;4.32;;;;;;;12.65;100.00;102056.41;5088181;28;20044;-68
2022/10/29 01:01:15;;;;;;;21.25;4.38;;;;;;;12.68;100.00;102050.31;5088823;28;20050;-69
2022/10/29 01:03:40;;;;;;;23.00;4.53;;;;;;;12.67;100.00;102050.28;5082736;28;20331;-70
2022/10/29 01:06:06;;;;;;;30.83;6.25;;;;;;;12.67;100.00;102045.00;5082267;28;20105;-69
2022/10/29 01:08:32;;;;;;;19.48;5.60;;;;;;;12.64;100.00;102037.91;5088944;28;20028;-70
2022/10/29 01:11:29;;;;;;;30.88;5.90;;;;;;;12.60;100.00;102025.47;5089813;28;20020;-68
2022/10/29 01:14:13;;;;;;;29.75;5.47;;;;;;;12.59;100.00;102021.06;5089536;28;20111;-69
2022/10/29 01:16:51;;;;;;;20.80;4.03;;;;;;;12.59;100.00;102008.75;5086530;28;20043;-68
2022/10/29 01:19:45;;;;;;;29.75;4.63;;;;;;;12.59;100.00;102013.13;5080162;28;20059;-70
2022/10/29 01:22:20;;;;;;;26.73;6.03;;;;;;;12.59;100.00;102000.81;5086531;28;20032;-70
2022/10/29 01:25:07;;;;;;;23.27;5.32;;;;;;;12.62;100.00;101997.38;5090668;28;20031;-69
2022/10/29 01:27:57;;;;;;;19.88;4.47;;;;;;;12.66;100.00;102007.16;5082793;28;20068;-69
2022/10/29 01:31:01;;;;;;;23.00;4.88;;;;;;;12.57;100.00;102030.66;5084527;28;20464;-69
2022/10/29 01:34:02;;;;;;;25.08;5.22;;;;;;;12.56;100.00;102029.78;5088329;28;20025;-70
2022/10/29 01:36:42;;;;;;;24.08;4.95;;;;;;;12.56;100.00;102034.16;5089917;28;20064;-69
2022/10/29 01:39:19;;;;;;;26.23;5.10;;;;;;;12.53;100.00;102024.41;5091363;28;20032;-68
2022/10/29 01:42:16;;;;;;;18.05;6.22;;;;;;;12.48;100.00;102015.47;5085677;28;20089;-70
2022/10/29 01:44:52;;;;;;;15.60;5.15;;;;;;;12.45;100.00;102015.38;5086126;28;20024;-69
2022/10/29 01:47:18;;;;;;;17.88;4.60;;;;;;;12.42;100.00;102012.66;5092285;28;20364;-70
2022/10/29 01:49:52;;;;;;;19.00;5.97;;;;;;;12.37;100.00;102002.00;5092688;28;20027;-69
2022/10/29 01:52:20;;;;;;;22.25;5.35;;;;;;;12.32;100.00;101990.41;5094279;28;20085;-69
2022/10/29 01:54:46;;;;;;;23.60;5.93;;;;;;;12.26;100.00;101998.13;5087586;28;20025;-70
2022/10/29 01:57:31;;;;;;;27.67;6.28;;;;;;;12.25;100.00;101997.25;5090568;28;20450;-70
2022/10/29 02:00:18;;;;;;;24.92;6.32;;;;;;;12.27;100.00;101986.72;5092228;28;20097;-69
2022/10/29 02:02:46;;;;;;;15.13;5.40;;;;;;;12.30;100.00;101989.44;5092733;28;20233;-70
2022/10/29 02:05:34;;;;;;;27.90;8.52;;;;;;;12.32;100.00;101988.63;5094896;28;20023;-69
2022/10/29 02:08:19;;;;;;;15.90;5.47;;;;;;;12.36;100.00;101994.91;5091880;28;20036;-69
2022/10/29 02:11:09;;;;;;;19.55;6.03;;;;;;;12.32;100.00;101996.56;5094482;28;20046;-70
2022/10/29 02:13:42;;;;;;;21.23;6.15;;;;;;;12.31;100.00;101986.84;5083542;28;20463;-70
2022/10/29 02:16:09;;;;;;;35.30;8.18;;;;;;;12.35;100.00;101987.84;5092873;28;20024;-69
2022/10/29 02:18:44;;;;;;;31.15;7.78;;;;;;;12.37;100.00;101986.16;5092069;28;20220;-70
2022/10/29 02:21:09;;;;;;;28.23;7.78;;;;;;;12.40;100.00;101980.03;5077964;28;20427;-69
2022/10/29 02:23:35;;;;;;;33.25;8.73;;;;;;;12.43;100.00;101975.75;5082048;28;20059;-69
2022/10/29 02:26:00;;;;;;;19.25;7.65;;;;;;;12.45;100.00;101983.69;5093456;28;20036;-69
2022/10/29 02:28:25;;;;;;;20.02;7.97;;;;;;;12.44;100.00;101974.91;5080632;28;20024;-69
2022/10/29 02:30:50;;;;;;;21.52;7.68;;;;;;;12.46;100.00;101972.28;5084254;28;20032;-68
2022/10/29 02:33:16;;;;;;;21.30;8.10;;;;;;;12.45;100.00;101963.50;5081875;28;20031;-69
2022/10/29 02:35:41;;;;;;;23.08;7.97;;;;;;;12.45;100.00;101966.13;5093253;28;20103;-69
2022/10/29 02:38:06;;;;;;;25.20;8.48;;;;;;;12.45;100.00;101967.84;5089911;28;20029;-69
2022/10/29 02:40:31;;;;;;;22.38;8.90;;;;;;;12.44;100.00;101976.66;5075983;28;20028;-69
2022/10/29 02:42:57;;;;;;;28.45;9.13;;;;;;;12.42;100.00;101966.03;5080596;28;20032;-68
2022/10/29 02:45:22;;;;;;;27.30;11.02;;;;;;;12.44;100.00;101956.41;5089133;28;20158;-69
2022/10/29 02:47:47;;;;;;;26.40;9.15;;;;;;;12.43;100.00;101948.47;5087717;28;20476;-69
2022/10/29 02:50:13;;;;;;;25.15;9.05;;;;;;;12.46;100.00;101948.53;5088864;28;20031;-69
2022/10/29 02:52:39;;;;;;;24.38;9.32;;;;;;;12.46;100.00;101943.25;5088890;28;20103;-70
2022/10/29 02:55:05;;;;;;;26.77;9.82;;;;;;;12.44;100.00;101940.56;5085871;28;20166;-70
2022/10/29 02:57:30;;;;;;;22.80;8.10;;;;;;;12.42;100.00;101947.53;5080903;28;20023;-70
2022/10/29 02:59:55;;;;;;;29.13;8.05;;;;;;;12.38;100.00;101950.97;5085611;28;20028;-68
2022/10/29 03:02:21;;;;;;;22.17;7.97;;;;;;;12.37;100.00;101954.47;5082347;28;20036;-69
2022/10/29 03:04:46;;;;;;;17.48;7.78;;;;;;;12.34;100.00;101959.66;5091098;28;20356;-69
2022/10/29 03:07:11;;;;;;;23.05;8.18;;;;;;;12.31;100.00;101962.22;5093835;28;20435;-69
2022/10/29 03:09:36;;;;;;;25.38;7.75;;;;;;;12.27;100.00;101958.59;5087423;28;20036;-68
2022/10/29 03:12:02;;;;;;;18.17;7.57;;;;;;;12.28;100.00;101962.13;5087155;28;20028;-69
2022/10/29 03:14:27;;;;;;;25.70;8.50;;;;;;;12.26;100.00;101967.38;5087973;28;20036;-69
2022/10/29 03:16:52;;;;;;;24.73;8.07;;;;;;;12.28;100.00;101965.66;5082177;28;20027;-69
2022/10/29 03:19:18;;;;;;;20.75;8.25;;;;;;;12.30;100.00;101957.78;5088351;28;20095;-69
2022/10/29 03:21:43;;;;;;;25.42;9.15;;;;;;;12.31;100.00;101954.28;5088402;28;20038;-70
2022/10/29 03:24:08;;;;;;;23.20;7.93;;;;;;;12.32;100.00;101953.44;5080234;28;20054;-69
2022/10/29 03:26:34;;;;;;;21.90;7.97;;;;;;;12.35;100.00;101950.00;5084115;28;20115;-69
2022/10/29 03:28:59;;;;;;;18.35;8.07;;;;;;;12.37;100.00;101936.00;5083478;28;20494;-69
2022/10/29 03:31:24;;;;;;;29.70;8.93;;;;;;;12.42;100.00;101929.06;5076830;28;20017;-69
2022/10/29 03:33:50;;;;;;;20.73;8.30;;;;;;;12.46;100.00;101928.28;5088879;28;20032;-68
2022/10/29 03:36:15;;;;;;;24.77;8.88;;;;;;;12.47;100.00;101924.81;5092096;28;20448;-69
2022/10/29 03:38:40;;;;;;;20.90;9.80;;;;;;;12.51;100.00;101936.34;5084157;28;20469;-70
2022/10/29 03:41:09;;;;;;;26.52;9.52;;;;;;;12.51;100.00;101936.34;5092518;28;20032;-68
2022/10/29 03:43:35;;;;;;;24.92;8.80;;;;;;;12.54;100.00;101941.72;5089474;28;20464;-70
2022/10/29 03:46:01;;;;;;;18.20;8.40;;;;;;;12.55;100.00;101932.94;5076857;28;20047;-69
2022/10/29 03:48:26;;;;;;;23.48;8.80;;;;;;;12.58;100.00;101926.84;5089367;28;20150;-69
2022/10/29 03:50:55;;;;;;;27.85;10.18;;;;;;;12.59;100.00;101918.97;5091024;28;20086;-69
2022/10/29 03:53:21;;;;;;;31.30;9.13;;;;;;;12.62;100.00;101918.16;5077363;28;20032;-68
2022/10/29 03:55:46;;;;;;;27.05;8.90;;;;;;;12.63;100.00;101920.81;5074795;28;20030;-69
2022/10/29 03:58:11;;;;;;;26.35;9.15;;;;;;;12.66;100.00;101914.72;5088534;28;20044;-69
2022/10/29 04:00:37;;;;;;;18.42;8.50;;;;;;;12.67;100.00;101916.53;5088337;28;20661;-69
2022/10/29 04:03:02;;;;;;;22.77;8.82;;;;;;;12.69;100.00;101914.81;5076857;28;20024;-69
2022/10/29 04:05:27;;;;;;;26.10;9.27;;;;;;;12.70;100.00;101919.22;5080749;28;20701;-69
2022/10/29 04:07:53;;;;;;;28.40;9.75;;;;;;;12.71;100.00;101921.03;5093428;28;20490;-68
2022/10/29 04:10:18;;;;;;;19.48;9.38;;;;;;;12.72;100.00;101928.06;5085316;28;20463;-68
2022/10/29 04:12:45;;;;;;;17.88;8.30;;;;;;;12.72;100.00;101925.44;5088881;28;20031;-69
2022/10/29 04:15:11;;;;;;;24.73;9.02;;;;;;;12.73;100.00;101932.50;5086528;28;20032;-69
2022/10/29 04:17:36;;;;;;;20.33;9.15;;;;;;;12.74;100.00;101934.31;5092777;28;20032;-69
2022/10/29 04:20:01;;;;;;;23.30;8.90;;;;;;;12.76;100.00;101931.69;5085771;28;20173;-68
2022/10/29 04:22:27;;;;;;;22.83;9.50;;;;;;;12.77;100.00;101923.81;5091144;28;20487;-68
2022/10/29 04:24:52;;;;;;;20.58;9.05;;;;;;;12.78;100.00;101930.88;5089608;28;20568;-69
2022/10/29 04:27:17;;;;;;;18.05;8.68;;;;;;;12.78;100.00;101914.16;5080654;28;20020;-69
2022/10/29 04:29:42;;;;;;;20.75;8.48;;;;;;;12.77;100.00;101907.97;5085836;28;20460;-70
2022/10/29 04:32:08;;;;;;;24.60;8.45;;;;;;;12.79;100.00;101914.19;5090008;28;20077;-71
2022/10/29 04:34:33;;;;;;;24.70;7.63;;;;;;;12.80;100.00;101908.06;5088459;28;20104;-70
2022/10/29 04:36:58;;;;;;;17.55;8.73;;;;;;;12.80;100.00;101912.44;5085884;28;20055;-69
2022/10/29 04:39:24;;;;;;;15.95;7.72;;;;;;;12.81;100.00;101914.22;5075011;28;20078;-69
2022/10/29 04:41:49;;;;;;;20.48;9.10;;;;;;;12.82;100.00;101913.38;5091877;28;20016;-69
2022/10/29 04:44:14;;;;;;;17.85;8.43;;;;;;;12.82;100.00;101906.31;5086750;28;20024;-69
2022/10/29 04:46:40;;;;;;;24.33;8.20;;;;;;;12.86;100.00;101901.09;5089434;28;20035;-70
2022/10/29 04:49:05;;;;;;;36.53;8.52;;;;;;;12.84;100.00;101902.84;5088373;28;20095;-69
2022/10/29 04:51:30;;;;;;;18.90;8.25;;;;;;;12.80;100.00;101902.78;5087926;28;20032;-70
2022/10/29 04:53:55;;;;;;;27.08;8.52;;;;;;;12.81;100.00;101903.66;5086539;28;20118;-70
2022/10/29 04:56:21;;;;;;;21.25;8.13;;;;;;;12.80;100.00;101901.84;5090782;28;20468;-69
2022/10/29 04:58:49;;;;;;;23.23;8.63;;;;;;;12.80;100.00;101902.78;5089521;28;20044;-70
2022/10/29 05:01:15;;;;;;;15.57;7.85;;;;;;;12.78;100.00;101898.31;5081284;28;20047;-70
2022/10/29 05:03:40;;;;;;;21.17;8.68;;;;;;;12.76;100.00;101900.88;5091847;28;20043;-70
2022/10/29 05:06:06;;;;;;;18.88;8.50;;;;;;;12.78;100.00;101908.88;5083832;28;20034;-69
2022/10/29 05:08:31;;;;;;;19.60;8.55;;;;;;;12.77;100.00;101899.16;5088876;28;20441;-70
2022/10/29 05:11:00;;;;;;;20.45;7.85;;;;;;;12.75;100.00;101893.84;5076424;28;20402;-71
2022/10/29 05:13:25;;;;;;;21.45;9.73;;;;;;;12.74;100.00;101891.16;5084460;28;20107;-70
2022/10/29 05:15:51;;;;;;;18.05;7.90;;;;;;;12.74;100.00;101886.75;5085620;28;20447;-67
2022/10/29 05:18:16;;;;;;;16.67;7.63;;;;;;;12.75;100.00;101882.34;5080200;28;20032;-69
2022/10/29 05:20:42;;;;;;;25.75;9.48;;;;;;;12.74;100.00;101881.47;5080032;28;20019;-69
2022/10/29 05:23:10;;;;;;;20.90;8.50;;;;;;;12.74;100.00;101868.28;5084592;28;20036;-69
2022/10/29 05:25:38;;;;;;;21.40;8.77;;;;;;;12.77;100.00;101881.53;5056676;28;20024;-69
2022/10/29 05:28:11;;;;;;;19.58;8.10;;;;;;;12.77;100.00;101865.69;5082081;28;20480;-69
2022/10/29 05:30:38;;;;;;;21.08;9.75;;;;;;;12.79;100.00;101861.38;5084703;28;20028;-69
2022/10/29 05:33:08;;;;;;;18.42;8.68;;;;;;;12.78;100.00;101851.66;5079080;28;20112;-70
2022/10/29 05:35:34;;;;;;;21.55;9.70;;;;;;;12.81;100.00;101853.47;5073038;28;20028;-70
2022/10/29 05:37:59;;;;;;;21.02;9.45;;;;;;;12.80;100.00;101865.78;5074945;28;20024;-69
2022/10/29 05:40:25;;;;;;;26.17;10.55;;;;;;;12.81;100.00;101861.41;5087438;28;20095;-70
2022/10/29 05:42:51;;;;;;;22.40;10.30;;;;;;;12.82;100.00;101869.34;5081761;28;20048;-71
2022/10/29 05:45:16;;;;;;;19.50;9.38;;;;;;;12.82;100.00;101864.06;5075847;28;20032;-71
2022/10/29 05:47:42;;;;;;;19.40;9.60;;;;;;;12.84;100.00;101869.38;5093046;28;20024;-70
2022/10/29 05:50:09;;;;;;;21.33;10.15;;;;;;;12.85;100.00;101871.19;5079800;28;20027;-70
2022/10/29 05:52:34;;;;;;;21.38;9.82;;;;;;;12.85;100.00;101872.94;5090122;28;20814;-70
2022/10/29 05:55:00;;;;;;;16.15;10.57;;;;;;;12.84;100.00;101866.75;5086948;28;20025;-70
2022/10/29 05:57:27;;;;;;;17.10;9.30;;;;;;;12.84;100.00;101861.44;5089226;28;20029;-69
2022/10/29 05:59:52;;;;;;;20.63;9.80;;;;;;;12.85;100.00;101862.38;5094333;28;20035;-68
2022/10/29 06:02:17;;;;;;;20.38;10.32;;;;;;;12.84;100.00;101865.84;5090352;28;20036;-70
2022/10/29 06:04:43;;;;;;;19.90;10.65;;;;;;;12.85;100.00;101859.72;5081772;28;20031;-70
2022/10/29 06:07:08;;;;;;;22.42;11.20;;;;;;;12.85;100.00;101862.38;5083880;28;20036;-70
2022/10/29 06:09:33;;;;;;;29.42;10.45;;;;;;;12.85;100.00;101859.72;5079353;28;20103;-70
2022/10/29 06:11:58;;;;;;;22.98;10.35;;;;;;;12.85;100.00;101854.44;5089712;28;20032;-70
2022/10/29 06:14:24;;;;;;;21.67;11.48;;;;;;;12.85;100.00;101846.53;5087608;28;20355;-70
2022/10/29 06:16:49;;;;;;;26.85;12.07;;;;;;;12.85;100.00;101847.41;5080809;28;20464;-68
2022/10/29 06:19:14;;;;;;;25.52;12.30;;;;;;;12.85;100.00;101847.41;5077630;28;20028;-70
2022/10/29 06:21:40;;;;;;;24.95;11.68;;;;;;;12.86;100.00;101848.28;5085610;28;20016;-71
2022/10/29 06:24:06;;;;;;;22.58;11.75;;;;;;;12.88;100.00;101849.22;5091915;28;20027;-70
2022/10/29 06:26:32;;;;;;;26.77;13.32;;;;;;;12.89;100.00;101848.38;5092747;28;20429;-69
2022/10/29 06:28:58;;;;;;;22.65;11.82;;;;;;;12.90;100.00;101840.47;5086959;28;20028;-68
2022/10/29 06:31:23;;;;;;;27.30;13.77;;;;;;;12.91;100.00;101838.72;5087676;28;20396;-69
2022/10/29 06:33:48;;;;;;;33.28;14.98;;;;;;;12.93;100.00;101844.94;5089824;28;20044;-69
2022/10/29 06:36:14;;;;;;;26.25;13.20;;;;;;;12.93;100.00;101839.66;5080146;28;20483;-70
2022/10/29 06:38:39;;;;;;;29.98;14.60;;;;;;;12.96;100.00;101840.59;5086781;28;20051;-70
2022/10/29 06:41:04;;;;;;;32.25;17.05;;;;;;;12.98;100.00;101836.25;5087660;28;20116;-70
2022/10/29 06:43:30;;;;;;;31.40;15.40;;;;;;;13.01;100.00;101845.09;5084660;28;20052;-70
2022/10/29 06:45:55;;;;;;;31.73;15.45;;;;;;;13.04;100.00;101845.19;5087393;28;20484;-69
2022/10/29 06:48:21;;;;;;;36.80;14.85;;;;;;;13.08;100.00;101840.00;5080917;28;20428;-70
2022/10/29 06:50:46;;;;;;;30.88;15.05;;;;;;;13.10;100.00;101842.66;5085379;28;20024;-70
2022/10/29 06:53:15;;;;;;;28.15;15.10;;;;;;;13.10;100.00;101838.28;5086929;28;20449;-70
2022/10/29 06:55:40;;;;;;;27.85;15.38;;;;;;;13.14;100.00;101829.56;5088090;28;20036;-69
2022/10/29 06:58:14;;;;;;;32.22;16.48;;;;;;;13.16;100.00;101832.25;5080119;28;20043;-69
2022/10/29 07:00:40;;;;;;;34.58;17.67;;;;;;;13.19;100.00;101831.44;5081777;28;20106;-70
2022/10/29 07:03:06;;;;;;;29.67;16.17;;;;;;;13.21;100.00;101820.03;5081479;28;20483;-69
2022/10/29 07:05:32;;;;;;;38.08;17.65;;;;;;;13.23;100.00;101818.28;5087491;28;20024;-70
2022/10/29 07:07:59;;;;;;;38.15;17.63;;;;;;;13.26;100.00;101825.41;5077767;28;20377;-70
2022/10/29 07:10:27;;;;;;;29.63;14.48;;;;;;;13.27;100.00;101813.97;5076936;28;20031;-70
2022/10/29 07:12:52;;;;;;;33.95;15.98;;;;;;;13.27;100.00;101803.41;5089246;28;20056;-69
2022/10/29 07:15:17;;;;;;;32.05;14.90;;;;;;;13.25;100.00;101815.69;5088501;28;21622;-70
2022/10/29 07:17:53;;;;;;;26.70;14.73;;;;;;;13.25;100.00;101826.25;5081375;28;20395;-69
2022/10/29 07:20:18;;;;;;;30.60;14.75;;;;;;;13.27;100.00;101829.84;5090184;28;20032;-68
2022/10/29 07:22:46;;;;;;;35.17;18.27;;;;;;;13.29;100.00;101834.28;5087283;28;20024;-68
2022/10/29 07:25:11;;;;;;;33.22;18.50;;;;;;;13.36;100.00;101835.34;5081629;28;20104;-70
2022/10/29 07:27:36;;;;;;;44.05;18.98;;;;;;;13.46;100.00;101836.44;5078460;28;20440;-70
2022/10/29 07:30:02;;;;;;;42.25;18.58;;;;;;;13.56;100.00;101826.94;5090105;28;20035;-69
2022/10/29 07:32:27;;;;;;;39.92;18.88;;;;;;;13.68;100.00;101828.94;5076332;28;20048;-70
2022/10/29 07:34:52;;;;;;;38.92;18.75;;;;;;;13.73;100.00;101820.22;5084867;28;20020;-69
2022/10/29 07:37:18;;;;;;;35.33;16.65;;;;;;;13.79;100.00;101815.03;5089735;28;20050;-70
2022/10/29 07:39:43;;;;;;;38.38;17.23;;;;;;;13.89;100.00;101810.81;5087942;28;20413;-71
2022/10/29 07:42:08;;;;;;;34.75;17.38;;;;;;;13.94;100.00;101809.13;5086006;28;20028;-70
2022/10/29 07:44:34;;;;;;;36.83;16.42;;;;;;;13.98;100.00;101804.78;5079084;28;20020;-70
2022/10/29 07:47:01;;;;;;;38.75;17.27;;;;;;;14.02;100.00;101798.69;5082653;28;20483;-70
2022/10/29 07:49:26;;;;;;;32.47;16.52;;;;;;;14.06;100.00;101797.88;5091399;28;20023;-71
2022/10/29 07:51:51;;;;;;;36.13;17.25;;;;;;;14.12;100.00;101798.00;5084822;28;20038;-69
2022/10/29 07:54:17;;;;;;;36.88;16.23;;;;;;;14.18;100.00;101798.97;5088675;28;20032;-69
2022/10/29 07:56:42;;;;;;;30.98;15.68;;;;;;;14.25;100.00;101808.78;5076808;28;20052;-69
2022/10/29 07:59:08;;;;;;;39.15;16.63;;;;;;;14.30;100.00;101817.72;5091147;28;20075;-69
2022/10/29 08:01:41;;;;;;;28.67;14.88;;;;;;;14.30;100.00;101823.00;5081503;28;20112;-70
2022/10/29 08:04:06;;;;;;;31.73;15.40;;;;;;;14.33;100.00;101815.09;5078124;28;20530;-70
2022/10/29 08:06:32;;;;;;;36.10;15.18;;;;;;;14.34;100.00;101815.13;5077056;28;20024;-70
2022/10/29 08:08:57;;;;;;;32.80;16.35;;;;;;;14.37;100.00;101814.28;5089254;28;20024;-70
2022/10/29 08:11:22;;;;;;;32.70;15.57;;;;;;;14.39;100.00;101812.56;5072945;28;20408;-71
2022/10/29 08:13:48;;;;;;;29.30;15.68;;;;;;;14.42;100.00;101806.41;5086298;28;20638;-69
2022/10/29 08:16:13;;;;;;;41.85;16.10;;;;;;;14.40;100.00;101792.25;5092662;28;20024;-70
2022/10/29 08:18:39;;;;;;;33.35;16.08;;;;;;;14.39;100.00;101794.03;5085507;28;20133;-70
2022/10/29 08:21:04;;;;;;;28.52;14.75;;;;;;;14.43;100.00;101801.16;5072591;28;20033;-72
2022/10/29 08:23:30;;;;;;;38.10;15.32;;;;;;;14.45;100.00;101810.00;5080295;28;20027;-69
2022/10/29 08:25:57;;;;;;;28.45;16.13;;;;;;;14.48;100.00;101807.41;5072304;28;20025;-69
2022/10/29 08:28:22;;;;;;;31.77;15.05;;;;;;;14.54;100.00;101809.28;5080686;28;20020;-71
2022/10/29 08:30:48;;;;;;;34.38;18.10;;;;;;;14.61;100.00;101812.88;5086171;28;20441;-72
2022/10/29 08:33:14;;;;;;;33.88;16.33;;;;;;;14.71;100.00;101824.56;5081231;28;20024;-69
2022/10/29 08:35:39;;;;;;;38.83;16.77;;;;;;;14.75;100.00;101819.31;5085977;28;20034;-69
2022/10/29 08:38:04;;;;;;;31.48;15.60;;;;;;;14.81;100.00;101815.88;5079083;28;20503;-70
2022/10/29 08:40:52;;;;;;;34.88;17.05;;;;;;;14.88;100.00;101806.25;5073327;28;20028;-69
2022/10/29 08:43:45;;;;;;;27.02;15.65;;;;;;;14.97;100.00;101803.75;5085053;28;20024;-69
2022/10/29 08:46:38;;;;;;;30.35;16.17;;;;;;;15.05;100.00;101806.50;5082374;28;20028;-69
2022/10/29 08:49:13;;;;;;;28.60;15.27;;;;;;;15.15;100.00;101806.66;5076180;28;20029;-69
2022/10/29 08:51:43;;;;;;;31.33;15.20;;;;;;;15.22;100.00;101796.09;5077644;28;20696;-68
2022/10/29 08:54:13;;;;;;;27.67;15.43;;;;;;;15.24;100.00;101789.94;5091652;28;20431;-68
2022/10/29 08:56:44;;;;;;;32.58;14.90;;;;;;;15.29;100.00;101774.13;5083551;28;20036;-69
2022/10/29 08:59:20;;;;;;;28.48;14.75;;;;;;;15.32;100.00;101780.31;5083305;28;20119;-69
2022/10/29 09:01:46;;;;;;;29.83;14.20;;;;;;;15.39;100.00;101785.72;5086817;28;20036;-69
2022/10/29 09:04:23;;;;;;;31.05;15.73;;;;;;;15.44;100.00;101773.41;5077945;28;20024;-68
2022/10/29 09:07:16;;;;;;;26.65;15.18;;;;;;;15.48;100.00;101772.56;5083521;28;20028;-68
2022/10/29 09:10:06;;;;;;;26.55;14.70;;;;;;;15.50;100.00;101778.75;5078939;28;20090;-68
2022/10/29 09:12:46;;;;;;;36.83;14.50;;;;;;;15.51;100.00;101773.47;5072431;28;20094;-68
2022/10/29 09:15:43;;;;;;;31.77;14.43;;;;;;;15.50;100.00;101766.41;5080136;28;20487;-69
2022/10/29 09:18:34;;;;;;;28.35;14.35;;;;;;;15.52;100.00;101763.78;5090288;28;20035;-70
2022/10/29 09:21:10;;;;;;;32.65;15.73;;;;;;;15.54;100.00;101764.66;5077892;28;20484;-69
2022/10/29 09:23:58;;;;;;;30.33;15.20;;;;;;;15.51;100.00;101757.56;5085404;28;20024;-69
2022/10/29 09:26:32;;;;;;;35.30;15.90;;;;;;;15.49;100.00;101740.75;5084183;28;20487;-70
2022/10/29 09:29:27;;;;;;;35.30;16.77;;;;;;;15.47;100.00;101728.34;5082188;28;20111;-70
2022/10/29 09:31:56;;;;;;;31.92;16.45;;;;;;;15.50;100.00;101716.00;5090189;28;20039;-69
2022/10/29 09:34:30;;;;;;;32.75;16.20;;;;;;;15.50;100.00;101712.44;5086136;28;20032;-70
2022/10/29 09:36:57;;;;;;;31.13;15.65;;;;;;;15.52;100.00;101722.19;5083593;28;20024;-69
2022/10/29 09:39:35;;;;;;;31.13;15.82;;;;;;;15.58;100.00;101728.44;5087724;28;20456;-69
2022/10/29 09:42:07;;;;;;;29.27;16.20;;;;;;;15.63;100.00;101724.09;5087358;28;20506;-69
2022/10/29 09:44:40;;;;;;;29.58;14.43;;;;;;;15.69;100.00;101716.16;5083445;28;20038;-71
2022/10/29 09:47:18;;;;;;;31.60;15.30;;;;;;;15.81;100.00;101715.44;5078389;28;20471;-69
2022/10/29 09:50:02;;;;;;;28.27;14.05;;;;;;;15.94;100.00;101724.38;5076651;28;20024;-68
2022/10/29 09:52:31;;;;;;;24.90;13.63;;;;;;;16.05;100.00;101730.69;5075811;28;20103;-69
2022/10/29 09:54:59;;;;;;;29.92;14.30;;;;;;;16.23;100.00;101737.03;5081355;28;20024;-69
2022/10/29 09:57:28;;;;;;;31.27;14.90;;;;;;;16.34;100.00;101730.88;5082340;28;20158;-68
2022/10/29 10:00:03;;;;;;;29.15;13.57;;;;;;;16.64;100.00;101721.34;5087165;28;20118;-68
2022/10/29 10:02:36;;;;;;;29.63;12.35;;;;;;;17.07;100.00;101717.16;5083053;28;20085;-68
2022/10/29 10:05:13;;;;;;;35.65;11.80;;;;;;;17.65;100.00;101717.28;5087369;28;20043;-68
2022/10/29 10:07:39;;;;;;;20.13;10.95;;;;;;;18.16;100.00;101714.66;5076163;28;20024;-68
2022/10/29 10:10:19;;;;;;;20.10;9.32;;;;;;;18.64;100.00;101708.34;5085255;28;20490;-68
2022/10/29 10:12:47;;;;;;;15.90;9.38;;;;;;;19.11;100.00;101723.28;5087559;28;20032;-68
2022/10/29 10:15:25;;;;;;;15.57;9.07;;;;;;;19.29;100.00;101721.41;5076865;28;20111;-68
2022/10/29 10:17:53;;;;;;;16.20;9.00;;;;;;;19.17;100.00;101711.72;5092619;28;20024;-67
2022/10/29 10:20:27;;;;;;;21.52;8.85;;;;;;;19.10;100.00;101709.97;5089238;28;20027;-68
2022/10/29 10:22:52;;;;;;;23.17;9.30;;;;;;;18.95;100.00;101710.91;5094732;28;20475;-67
2022/10/29 10:25:36;;;;;;;22.73;8.98;;;;;;;19.03;100.00;101699.34;5078849;28;20082;-68
2022/10/29 10:28:23;;;;;;;21.88;8.68;;;;;;;19.36;100.00;101707.16;5093060;28;20042;-68
2022/10/29 10:31:21;;;;;;;19.77;9.15;;;;;;;20.09;100.00;101710.19;5083465;28;20047;-68
2022/10/29 10:33:52;;;;;;;18.15;7.53;;;;;;;20.53;100.00;101706.16;5040463;28;20380;-69
2022/10/29 10:36:21;;;;;;;17.13;7.75;;;;;;;20.61;100.00;101702.56;5075169;28;20112;-69
2022/10/29 10:38:49;;;;;;;18.48;7.47;;;;;;;20.88;100.00;101707.59;5081951;28;20477;-67
2022/10/29 10:41:22;;;;;;;16.80;8.15;;;;;;;21.28;100.00;101707.97;5090990;28;20031;-68
2022/10/29 10:43:48;;;;;;;17.70;7.15;;;;;;;21.36;100.00;101708.72;5075658;28;20073;-67
2022/10/29 10:46:28;;;;;;;17.13;7.50;;;;;;;21.18;100.00;101718.78;5075107;28;20025;-68
2022/10/29 10:49:10;;;;;;;14.30;7.43;;;;;;;21.14;100.00;101737.59;5087395;28;20449;-68
2022/10/29 10:51:37;;;;;;;19.88;7.63;;;;;;;21.22;100.00;101733.91;5088133;28;20024;-69
2022/10/29 10:54:22;;;;;;;18.17;7.45;;;;;;;21.17;100.00;101724.16;5083216;28;20372;-70
2022/10/29 10:56:56;;;;;;;15.57;7.68;;;;;;;21.58;100.00;101722.69;5085150;28;20042;-67
2022/10/29 10:59:27;;;;;;;15.68;7.22;;;;;;;21.47;100.00;101714.78;5081366;28;20047;-68
2022/10/29 11:01:53;;;;;;;15.82;7.43;;;;;;;21.11;100.00;101706.41;5085929;28;20036;-67
2022/10/29 11:04:33;;;;;;;16.75;7.53;;;;;;;20.75;100.00;101708.63;5081597;28;20046;-68
2022/10/29 11:07:04;;;;;;;25.00;7.53;;;;;;;20.47;100.00;101697.34;5086570;28;20494;-69
2022/10/29 11:09:34;;;;;;;23.25;8.25;;;;;;;20.21;100.00;101694.06;5080781;28;20540;-68
2022/10/29 11:12:05;;;;;;;19.58;7.32;;;;;;;20.01;100.00;101699.56;5089251;28;20107;-66
2022/10/29 11:14:35;;;;;;;13.55;6.90;;;;;;;19.82;100.00;101689.97;5088152;28;20379;-68
2022/10/29 11:17:03;;;;;;;18.13;7.25;;;;;;;19.71;100.00;101688.22;5084106;28;20036;-67
2022/10/29 11:19:34;;;;;;;22.38;7.50;;;;;;;19.63;100.00;101678.47;5081169;28;20097;-67